Aviation Digital Data Service (ADDS)

Output produced by METARs form (0029 UTC 27 May 2017)
found at http://www.aviationweather.gov/adds/metars/
 
KPAE 262353Z 31008KT 10SM CLR 23/10 A2998 RMK AO2 SLP148 T02280100 10233 20178 55001
KPAE 262320Z 2700/2724 34006KT P6SM SKC 
     FM270400 VRB03KT P6SM SKC 
     FM271800 32006KT P6SM SKC
       
KAWO 270015Z AUTO 31008G14KT 10SM CLR 25/11 A2996 RMK AO1
KBFI 262353Z VRB06KT 10SM FEW100 26/09 A2994 RMK AO2 SLP139 T02560094 10256 20200 55004
KBFI 262320Z 2700/2724 31006KT P6SM SKC 
     FM270300 VRB03KT P6SM SKC 
     FM271900 29006KT P6SM SKC
       
KRNT 262353Z 33007KT 10SM CLR 25/12 A2994 RMK AO2 SLP142 T02500117 10256 20194 55004
KSEA 262353Z 32008KT 10SM FEW050 FEW090 26/08 A2996 RMK AO2 SLP148 T02610078 10267 20194 55003
KSEA 262320Z 2700/2806 34008KT P6SM SKC 
     FM270300 36006KT P6SM SKC 
     FM270800 05004KT P6SM SKC 
     FM271200 VRB03KT P6SM SKC 
     FM271900 31007KT P6SM SKC